If you wish to contribute or participate in the discussions about articles you are invited to join SKYbrary as a registered user

 Actions

Bartolomeu Lysandro Airport

From SKYbrary Wiki

SBCP
Airport
ICAO: SBCP – IATA: CAW
Summary
Name Bartolomeu Lysandro Airport
Region South America and Caribbean
Territory Brazil BR.gif
Location Campos dos Goytacazes, Rio de Janeiro
Serving Campos dos Goytacazes
Elevation 16.459 m
54 ft16.459 m
Coordinates 21° 42' 4.00" S, 41° 18' 28.01" W
Runways
Designator Length Width Surface ROPS
7/25 1544 m5,065.617 ft
45 m147.638 ft
ASP /


METAR
Observation SBCP 262200Z 16006KT CAVOK 26/20 Q1015
Station Campos
Date/Time 26 March 2019 22:00:00
Wind direction 160°
Wind speed 06 kts
Lowest cloud amount clouds and visibility OK
Temperature 26°C
Dew point 20°C
Humidity 69%
QNH 1015 hPa
Weather condition n/a

Campos–Bartolomeu Lysandro Airport is the airport serving Campos dos Goytacazes, Brazil.

Climatology

Tropical savannah climate (Köppen climate classification Aw)

Maps

Terrain

Loading map...

Airport Layout

Loading map...


Accidents & Serious Incidents at or in vicinity of SBCP

None on SKYbrary